createdAt,value
2023-01-29T00:04:30.010Z,-0.56
2023-01-29T00:10:13.946Z,-0.54
2023-01-29T00:15:43.350Z,-0.49
2023-01-29T00:21:14.888Z,-0.47
2023-01-29T00:26:52.547Z,-0.50
2023-01-29T00:33:02.321Z,-0.49
2023-01-29T00:38:54.317Z,-0.48
2023-01-29T00:44:43.683Z,-0.46
2023-01-29T00:50:54.272Z,-0.45
2023-01-29T00:56:56.980Z,-0.48
2023-01-29T01:03:28.423Z,-0.48
2023-01-29T01:09:15.394Z,-0.45
2023-01-29T01:15:04.677Z,-0.45
2023-01-29T01:20:50.670Z,-0.41
2023-01-29T01:26:14.797Z,-0.40
2023-01-29T01:31:53.433Z,-0.38
2023-01-29T01:37:59.518Z,-0.35
2023-01-29T01:44:21.645Z,-0.32
2023-01-29T01:50:21.268Z,-0.33
2023-01-29T01:55:52.184Z,-0.33
2023-01-29T02:01:19.201Z,-0.34
2023-01-29T02:06:58.484Z,-0.41
2023-01-29T02:12:55.881Z,-0.42
2023-01-29T02:18:00.517Z,-0.42
2023-01-29T02:24:45.075Z,-0.44
2023-01-29T02:56:26.058Z,-0.52
2023-01-29T03:01:57.331Z,-0.53
2023-01-29T03:08:21.391Z,-0.50
2023-01-29T03:14:13.449Z,-0.51
2023-01-29T03:20:21.298Z,-0.53
2023-01-29T03:26:06.584Z,-0.56
2023-01-29T03:31:38.824Z,-0.61
2023-01-29T03:38:03.130Z,-0.61
2023-01-29T03:44:18.122Z,-0.62
2023-01-29T03:50:23.484Z,-0.61
2023-01-29T03:56:29.054Z,-0.57
2023-01-29T04:02:07.492Z,-0.55
2023-01-29T04:08:00.269Z,-0.55
2023-01-29T04:13:27.814Z,-0.54
2023-01-29T04:19:14.686Z,-0.54
2023-01-29T04:24:32.606Z,-0.56
2023-01-29T04:30:01.562Z,-0.60
2023-01-29T04:36:36.521Z,-0.60
2023-01-29T04:42:22.775Z,-0.59
2023-01-29T04:48:28.272Z,-0.64
2023-01-29T04:55:00.390Z,-0.63
2023-01-29T05:01:19.736Z,-0.62
2023-01-29T05:07:19.503Z,-0.60
2023-01-29T05:12:58.830Z,-0.55
2023-01-29T05:19:08.362Z,-0.52
2023-01-29T05:24:31.561Z,-0.50
2023-01-29T05:29:58.046Z,-0.50
2023-01-29T05:35:41.760Z,-0.53
2023-01-29T05:41:17.473Z,-0.55
2023-01-29T05:46:46.249Z,-0.52
2023-01-29T05:52:06.436Z,-0.50
2023-01-29T05:57:54.301Z,-0.49
2023-01-29T06:03:36.790Z,-0.47
2023-01-29T06:09:13.352Z,-0.47
2023-01-29T06:15:03.721Z,-0.46
2023-01-29T06:21:10.573Z,-0.43
2023-01-29T06:26:43.033Z,-0.38
2023-01-29T06:32:07.831Z,-0.39
2023-01-29T06:37:37.837Z,-0.38
2023-01-29T06:42:51.806Z,-0.37
2023-01-29T06:48:08.485Z,-0.34
2023-01-29T06:53:40.301Z,-0.33
2023-01-29T06:59:22.444Z,-0.29
2023-01-29T07:04:47.567Z,-0.25
2023-01-29T07:10:07.494Z,-0.25
2023-01-29T07:15:23.390Z,-0.26
2023-01-29T07:20:32.883Z,-0.26
2023-01-29T07:25:42.808Z,-0.23
2023-01-29T07:30:46.676Z,-0.25
2023-01-29T07:36:18.388Z,-0.22
2023-01-29T07:41:32.925Z,-0.17
2023-01-29T07:46:54.752Z,-0.07
2023-01-29T07:51:58.087Z,0.01
2023-01-29T07:57:24.420Z,0.10
2023-01-29T08:02:40.962Z,0.19
2023-01-29T08:08:06.622Z,0.26
2023-01-29T08:13:33.418Z,0.32
2023-01-29T08:18:47.904Z,0.41
2023-01-29T08:23:54.711Z,0.50
2023-01-29T08:29:22.724Z,0.54
2023-01-29T08:34:29.221Z,0.55
2023-01-29T08:39:49.813Z,0.58
2023-01-29T08:44:53.025Z,0.60
2023-01-29T08:50:30.494Z,0.69
2023-01-29T08:55:42.861Z,0.79
2023-01-29T09:00:46.068Z,0.92
2023-01-29T09:05:49.583Z,0.98
2023-01-29T09:10:52.959Z,1.04
2023-01-29T09:16:01.243Z,1.01
2023-01-29T09:21:05.080Z,0.92
2023-01-29T09:26:09.087Z,0.89
2023-01-29T09:31:12.115Z,0.95
2023-01-29T09:36:15.274Z,0.92
2023-01-29T09:41:56.927Z,0.86
2023-01-29T09:47:05.265Z,0.85
2023-01-29T09:52:18.645Z,0.88
2023-01-29T09:58:00.810Z,0.90
2023-01-29T10:03:51.543Z,1.08
2023-01-29T10:09:10.217Z,1.28
2023-01-29T10:14:40.554Z,1.36
2023-01-29T10:20:30.374Z,1.41
2023-01-29T10:25:43.072Z,1.38
2023-01-29T10:30:51.110Z,1.29
2023-01-29T10:36:03.356Z,1.22
2023-01-29T10:41:30.980Z,1.14
2023-01-29T10:46:54.075Z,1.22
2023-01-29T10:52:44.664Z,1.26
2023-01-29T10:58:03.060Z,1.29
2023-01-29T11:03:29.457Z,1.27
2023-01-29T11:09:23.807Z,1.25
2023-01-29T11:14:53.728Z,1.23
2023-01-29T11:19:57.050Z,1.30
2023-01-29T11:25:22.459Z,1.36
2023-01-29T11:30:41.559Z,1.36
2023-01-29T11:35:45.286Z,1.45
2023-01-29T11:40:48.819Z,1.51
2023-01-29T11:45:56.749Z,1.51
2023-01-29T11:51:01.449Z,1.51
2023-01-29T11:56:22.139Z,1.54
2023-01-29T12:01:45.914Z,1.51
2023-01-29T12:06:53.369Z,1.40
2023-01-29T12:12:42.436Z,1.37
2023-01-29T12:18:19.680Z,1.35
2023-01-29T12:24:27.029Z,1.30
2023-01-29T12:30:23.738Z,1.29
2023-01-29T12:35:36.169Z,1.33
2023-01-29T12:41:46.559Z,1.33
2023-01-29T12:47:00.803Z,1.37
2023-01-29T12:52:47.943Z,1.39
2023-01-29T12:58:22.641Z,1.38
2023-01-29T13:04:23.625Z,1.38
2023-01-29T13:09:36.843Z,1.32
2023-01-29T13:14:56.593Z,1.32
2023-01-29T13:20:30.312Z,1.38
2023-01-29T13:25:39.085Z,1.42
2023-01-29T13:30:42.359Z,1.42
2023-01-29T13:35:46.487Z,1.40
2023-01-29T13:40:51.410Z,1.38
2023-01-29T13:45:55.673Z,1.38
2023-01-29T13:51:17.824Z,1.36
2023-01-29T13:56:45.310Z,1.34
2023-01-29T14:02:02.961Z,1.33
2023-01-29T14:07:44.430Z,1.36
2023-01-29T14:12:50.550Z,1.35
2023-01-29T14:18:16.479Z,1.35
2023-01-29T14:23:49.381Z,1.35
2023-01-29T14:28:59.044Z,1.32
2023-01-29T14:34:07.378Z,1.28
2023-01-29T14:39:31.433Z,1.24
2023-01-29T14:44:48.570Z,1.22
2023-01-29T14:49:55.444Z,1.23
2023-01-29T14:55:07.084Z,1.19
2023-01-29T15:00:43.563Z,1.18
2023-01-29T15:05:48.853Z,1.18
2023-01-29T15:11:14.844Z,1.14
2023-01-29T15:17:08.853Z,1.13
2023-01-29T15:22:19.296Z,1.14
2023-01-29T15:27:22.717Z,1.13
2023-01-29T15:32:35.942Z,1.13
2023-01-29T15:37:40.196Z,1.12
2023-01-29T15:42:48.883Z,1.12
2023-01-29T15:48:08.906Z,1.15
2023-01-29T15:53:22.399Z,1.18
2023-01-29T15:58:32.345Z,1.21
2023-01-29T16:03:38.297Z,1.23
2023-01-29T16:08:50.972Z,1.23
2023-01-29T16:13:54.599Z,1.23
2023-01-29T16:19:01.607Z,1.25
2023-01-29T16:24:09.871Z,1.26
2023-01-29T16:29:33.435Z,1.27
2023-01-29T16:34:41.808Z,1.29
2023-01-29T16:39:52.505Z,1.28
2023-01-29T16:45:02.425Z,1.27
2023-01-29T16:50:27.453Z,1.26
2023-01-29T16:55:45.685Z,1.26
2023-01-29T17:01:08.336Z,1.24
2023-01-29T17:06:29.438Z,1.21
2023-01-29T17:11:38.893Z,1.22
2023-01-29T17:17:01.728Z,1.21
2023-01-29T17:22:07.767Z,1.19
2023-01-29T17:27:22.164Z,1.18
2023-01-29T17:32:44.643Z,1.17
2023-01-29T17:37:51.317Z,1.17
2023-01-29T17:42:54.434Z,1.16
2023-01-29T17:47:58.383Z,1.12
2023-01-29T17:53:11.608Z,1.09
2023-01-29T17:58:29.030Z,1.07
2023-01-29T18:03:34.959Z,1.05
2023-01-29T18:08:41.297Z,1.02
2023-01-29T18:13:56.593Z,1.01
2023-01-29T18:19:00.039Z,1.02
2023-01-29T18:24:12.082Z,1.03
2023-01-29T18:29:18.099Z,1.04
2023-01-29T18:34:21.424Z,1.02
2023-01-29T18:39:25.564Z,1.02
2023-01-29T18:44:29.961Z,1.02
2023-01-29T18:49:33.340Z,1.02
2023-01-29T18:54:59.777Z,1.02
2023-01-29T19:00:06.516Z,1.02
2023-01-29T19:05:10.255Z,1.00
2023-01-29T19:10:17.125Z,1.03
2023-01-29T19:15:23.290Z,1.02
2023-01-29T19:20:29.143Z,1.03
2023-01-29T19:25:32.345Z,1.06
2023-01-29T19:30:38.452Z,1.09
2023-01-29T19:35:47.321Z,1.11
2023-01-29T19:40:51.483Z,1.12
2023-01-29T19:45:59.643Z,1.12
2023-01-29T19:51:09.525Z,1.14
2023-01-29T19:56:18.768Z,1.15
2023-01-29T20:01:22.005Z,1.12
2023-01-29T20:06:31.168Z,1.12
2023-01-29T20:11:34.600Z,1.09
2023-01-29T20:16:38.638Z,1.10
2023-01-29T20:21:45.496Z,1.14
2023-01-29T20:26:59.118Z,1.15
2023-01-29T20:32:04.279Z,1.13
2023-01-29T20:37:28.234Z,1.09
2023-01-29T20:42:31.189Z,1.06
2023-01-29T20:47:45.037Z,1.05
2023-01-29T20:52:53.078Z,1.05
2023-01-29T20:58:05.664Z,1.06
2023-01-29T21:03:15.325Z,1.04
2023-01-29T21:08:41.796Z,1.03
2023-01-29T21:13:57.726Z,1.04
2023-01-29T21:19:05.745Z,1.06
2023-01-29T21:24:18.852Z,1.09
2023-01-29T21:29:30.336Z,1.11
2023-01-29T21:34:36.657Z,1.12
2023-01-29T21:39:53.745Z,1.16
2023-01-29T21:44:57.303Z,1.20
2023-01-29T21:50:20.785Z,1.24
2023-01-29T21:55:36.378Z,1.24
2023-01-29T22:00:42.155Z,1.22
2023-01-29T22:05:55.306Z,1.20
2023-01-29T22:10:58.802Z,1.20
2023-01-29T22:16:06.147Z,1.18
2023-01-29T22:21:12.663Z,1.18
2023-01-29T22:26:16.746Z,1.19
2023-01-29T22:31:29.223Z,1.20
2023-01-29T22:36:52.819Z,1.20
2023-01-29T22:41:56.092Z,1.21
2023-01-29T22:47:13.585Z,1.20
2023-01-29T22:52:38.765Z,1.21
2023-01-29T22:57:42.070Z,1.22
2023-01-29T23:02:56.245Z,1.23
2023-01-29T23:08:00.033Z,1.22
2023-01-29T23:13:08.263Z,1.22
2023-01-29T23:18:14.495Z,1.23
2023-01-29T23:23:19.967Z,1.20
2023-01-29T23:28:36.247Z,1.19
2023-01-29T23:33:42.381Z,1.19
2023-01-29T23:39:08.949Z,1.18
2023-01-29T23:44:12.405Z,1.16
2023-01-29T23:49:21.166Z,1.18
2023-01-29T23:54:24.785Z,1.18
2023-01-29T23:59:38.906Z,1.21
